sensor_id;sensor_type;location;lat;lon;timestamp;temperature;humidity
7822;DHT22;3956;50.558;9.678;2022-07-05T00:01:16;16.30;99.90
7822;DHT22;3956;50.558;9.678;2022-07-05T00:03:46;16.30;99.90
7822;DHT22;3956;50.558;9.678;2022-07-05T00:06:15;16.20;99.90
7822;DHT22;3956;50.558;9.678;2022-07-05T00:08:43;16.20;99.90
7822;DHT22;3956;50.558;9.678;2022-07-05T00:11:12;16.20;99.90
7822;DHT22;3956;50.558;9.678;2022-07-05T00:13:44;16.10;99.90
7822;DHT22;3956;50.558;9.678;2022-07-05T00:16:20;16.10;99.90
7822;DHT22;3956;50.558;9.678;2022-07-05T00:18:59;16.10;99.90
7822;DHT22;3956;50.558;9.678;2022-07-05T00:21:34;16.10;99.90
7822;DHT22;3956;50.558;9.678;2022-07-05T00:24:04;16.00;99.90
7822;DHT22;3956;50.558;9.678;2022-07-05T00:26:34;15.90;99.90
7822;DHT22;3956;50.558;9.678;2022-07-05T00:29:03;15.90;99.90
7822;DHT22;3956;50.558;9.678;2022-07-05T00:31:35;16.00;99.90
7822;DHT22;3956;50.558;9.678;2022-07-05T00:34:05;15.80;99.90
7822;DHT22;3956;50.558;9.678;2022-07-05T00:36:35;15.90;99.90
7822;DHT22;3956;50.558;9.678;2022-07-05T00:39:04;15.80;99.90
7822;DHT22;3956;50.558;9.678;2022-07-05T00:41:33;15.60;99.90
7822;DHT22;3956;50.558;9.678;2022-07-05T00:44:05;15.50;99.90
7822;DHT22;3956;50.558;9.678;2022-07-05T00:46:36;15.40;99.90
7822;DHT22;3956;50.558;9.678;2022-07-05T00:49:07;15.50;99.90
7822;DHT22;3956;50.558;9.678;2022-07-05T00:51:38;15.50;99.90
7822;DHT22;3956;50.558;9.678;2022-07-05T00:54:28;15.50;99.90
7822;DHT22;3956;50.558;9.678;2022-07-05T00:56:58;15.40;99.90
7822;DHT22;3956;50.558;9.678;2022-07-05T00:59:31;15.40;99.90
7822;DHT22;3956;50.558;9.678;2022-07-05T01:02:00;15.40;99.90
7822;DHT22;3956;50.558;9.678;2022-07-05T01:04:31;15.40;99.90
7822;DHT22;3956;50.558;9.678;2022-07-05T01:07:01;15.30;99.90
7822;DHT22;3956;50.558;9.678;2022-07-05T01:09:30;15.00;99.90
7822;DHT22;3956;50.558;9.678;2022-07-05T01:12:05;15.10;99.90
7822;DHT22;3956;50.558;9.678;2022-07-05T01:14:33;15.20;99.90
7822;DHT22;3956;50.558;9.678;2022-07-05T01:17:04;15.20;99.90
7822;DHT22;3956;50.558;9.678;2022-07-05T01:19:38;15.30;99.90
7822;DHT22;3956;50.558;9.678;2022-07-05T01:22:16;15.20;99.90
7822;DHT22;3956;50.558;9.678;2022-07-05T01:24:48;15.00;99.90
7822;DHT22;3956;50.558;9.678;2022-07-05T01:27:18;15.00;99.90
7822;DHT22;3956;50.558;9.678;2022-07-05T01:29:47;15.00;99.90
7822;DHT22;3956;50.558;9.678;2022-07-05T01:32:19;15.00;99.90
7822;DHT22;3956;50.558;9.678;2022-07-05T01:34:48;14.90;99.90
7822;DHT22;3956;50.558;9.678;2022-07-05T01:37:18;15.00;99.90
7822;DHT22;3956;50.558;9.678;2022-07-05T01:39:51;14.90;99.90
7822;DHT22;3956;50.558;9.678;2022-07-05T01:42:19;14.80;99.90
7822;DHT22;3956;50.558;9.678;2022-07-05T01:44:48;15.00;99.90
7822;DHT22;3956;50.558;9.678;2022-07-05T01:47:17;15.00;99.90
7822;DHT22;3956;50.558;9.678;2022-07-05T01:49:49;14.90;99.90
7822;DHT22;3956;50.558;9.678;2022-07-05T01:52:21;14.90;99.90
7822;DHT22;3956;50.558;9.678;2022-07-05T01:54:52;14.70;99.90
7822;DHT22;3956;50.558;9.678;2022-07-05T01:57:23;14.60;99.90
7822;DHT22;3956;50.558;9.678;2022-07-05T01:59:51;14.50;99.90
7822;DHT22;3956;50.558;9.678;2022-07-05T02:02:21;14.30;99.90
7822;DHT22;3956;50.558;9.678;2022-07-05T02:04:50;14.30;99.90
7822;DHT22;3956;50.558;9.678;2022-07-05T02:07:20;14.30;99.90
7822;DHT22;3956;50.558;9.678;2022-07-05T02:09:51;14.30;99.90
7822;DHT22;3956;50.558;9.678;2022-07-05T02:12:54;14.30;99.90
7822;DHT22;3956;50.558;9.678;2022-07-05T02:18:24;14.00;99.90
7822;DHT22;3956;50.558;9.678;2022-07-05T02:20:57;13.80;99.90
7822;DHT22;3956;50.558;9.678;2022-07-05T02:23:26;13.80;99.90
7822;DHT22;3956;50.558;9.678;2022-07-05T02:25:59;13.70;99.90
7822;DHT22;3956;50.558;9.678;2022-07-05T02:28:29;13.80;99.90
7822;DHT22;3956;50.558;9.678;2022-07-05T02:30:57;14.00;99.90
7822;DHT22;3956;50.558;9.678;2022-07-05T02:33:25;14.00;99.90
7822;DHT22;3956;50.558;9.678;2022-07-05T02:35:54;14.10;99.90
7822;DHT22;3956;50.558;9.678;2022-07-05T02:38:22;14.00;99.90
7822;DHT22;3956;50.558;9.678;2022-07-05T02:40:51;14.10;99.90
7822;DHT22;3956;50.558;9.678;2022-07-05T02:43:20;14.00;99.90
7822;DHT22;3956;50.558;9.678;2022-07-05T02:45:49;13.90;99.90
7822;DHT22;3956;50.558;9.678;2022-07-05T02:48:17;13.90;99.90
7822;DHT22;3956;50.558;9.678;2022-07-05T02:50:45;14.00;99.90
7822;DHT22;3956;50.558;9.678;2022-07-05T02:53:14;13.90;99.90
7822;DHT22;3956;50.558;9.678;2022-07-05T02:55:43;13.70;99.90
7822;DHT22;3956;50.558;9.678;2022-07-05T02:58:11;13.60;99.90
7822;DHT22;3956;50.558;9.678;2022-07-05T03:00:41;13.60;99.90
7822;DHT22;3956;50.558;9.678;2022-07-05T03:03:11;13.60;99.90
7822;DHT22;3956;50.558;9.678;2022-07-05T03:05:41;13.50;99.90
7822;DHT22;3956;50.558;9.678;2022-07-05T03:08:10;13.40;99.90
7822;DHT22;3956;50.558;9.678;2022-07-05T03:10:38;13.40;1.00
7822;DHT22;3956;50.558;9.678;2022-07-05T03:13:18;13.50;99.90
7822;DHT22;3956;50.558;9.678;2022-07-05T03:16:01;13.40;99.90
7822;DHT22;3956;50.558;9.678;2022-07-05T03:18:42;13.40;99.90
7822;DHT22;3956;50.558;9.678;2022-07-05T03:21:12;13.40;99.90
7822;DHT22;3956;50.558;9.678;2022-07-05T03:23:40;13.40;99.90
7822;DHT22;3956;50.558;9.678;2022-07-05T03:26:09;13.30;99.90
7822;DHT22;3956;50.558;9.678;2022-07-05T03:28:37;13.20;99.90
7822;DHT22;3956;50.558;9.678;2022-07-05T03:31:07;13.10;1.00
7822;DHT22;3956;50.558;9.678;2022-07-05T03:33:35;13.00;1.00
7822;DHT22;3956;50.558;9.678;2022-07-05T03:36:25;13.20;99.90
7822;DHT22;3956;50.558;9.678;2022-07-05T03:40:15;13.30;99.90
7822;DHT22;3956;50.558;9.678;2022-07-05T03:43:06;13.30;99.90
7822;DHT22;3956;50.558;9.678;2022-07-05T03:45:34;13.40;99.90
7822;DHT22;3956;50.558;9.678;2022-07-05T03:48:05;13.50;99.90
7822;DHT22;3956;50.558;9.678;2022-07-05T03:51:19;13.60;99.90
7822;DHT22;3956;50.558;9.678;2022-07-05T03:53:50;13.60;99.90
7822;DHT22;3956;50.558;9.678;2022-07-05T03:56:19;13.60;99.90
7822;DHT22;3956;50.558;9.678;2022-07-05T03:58:50;13.50;99.90
7822;DHT22;3956;50.558;9.678;2022-07-05T04:01:18;13.50;99.90
7822;DHT22;3956;50.558;9.678;2022-07-05T04:03:53;13.50;99.90
7822;DHT22;3956;50.558;9.678;2022-07-05T04:06:33;13.30;99.90
7822;DHT22;3956;50.558;9.678;2022-07-05T04:09:05;13.30;99.90
7822;DHT22;3956;50.558;9.678;2022-07-05T04:11:34;13.30;99.90
7822;DHT22;3956;50.558;9.678;2022-07-05T04:14:10;13.30;99.90
7822;DHT22;3956;50.558;9.678;2022-07-05T04:17:00;13.40;99.90
7822;DHT22;3956;50.558;9.678;2022-07-05T04:19:30;13.50;99.90
7822;DHT22;3956;50.558;9.678;2022-07-05T04:21:58;13.40;99.90
7822;DHT22;3956;50.558;9.678;2022-07-05T04:24:27;13.50;99.90
7822;DHT22;3956;50.558;9.678;2022-07-05T04:26:57;13.40;99.90
7822;DHT22;3956;50.558;9.678;2022-07-05T04:29:30;13.40;99.90
7822;DHT22;3956;50.558;9.678;2022-07-05T04:32:01;13.20;99.90
7822;DHT22;3956;50.558;9.678;2022-07-05T04:34:33;13.10;99.90
7822;DHT22;3956;50.558;9.678;2022-07-05T04:37:18;13.00;1.00
7822;DHT22;3956;50.558;9.678;2022-07-05T04:39:54;13.10;99.90
7822;DHT22;3956;50.558;9.678;2022-07-05T04:42:22;13.10;99.90
7822;DHT22;3956;50.558;9.678;2022-07-05T04:44:51;13.00;1.00
7822;DHT22;3956;50.558;9.678;2022-07-05T04:47:19;12.80;1.00
7822;DHT22;3956;50.558;9.678;2022-07-05T04:49:49;12.90;99.90
7822;DHT22;3956;50.558;9.678;2022-07-05T04:52:17;13.00;99.90
7822;DHT22;3956;50.558;9.678;2022-07-05T04:54:46;13.20;99.90
7822;DHT22;3956;50.558;9.678;2022-07-05T04:57:14;13.10;99.90
7822;DHT22;3956;50.558;9.678;2022-07-05T04:59:43;13.10;99.90
7822;DHT22;3956;50.558;9.678;2022-07-05T05:02:11;13.20;99.90
7822;DHT22;3956;50.558;9.678;2022-07-05T05:04:40;13.40;99.90
7822;DHT22;3956;50.558;9.678;2022-07-05T05:07:10;13.60;99.90
7822;DHT22;3956;50.558;9.678;2022-07-05T05:09:39;13.80;99.90
7822;DHT22;3956;50.558;9.678;2022-07-05T05:12:19;13.90;99.90
7822;DHT22;3956;50.558;9.678;2022-07-05T05:14:53;13.80;99.90
7822;DHT22;3956;50.558;9.678;2022-07-05T05:17:21;13.80;99.90
7822;DHT22;3956;50.558;9.678;2022-07-05T05:19:50;14.00;99.90
7822;DHT22;3956;50.558;9.678;2022-07-05T05:22:21;14.10;99.90
7822;DHT22;3956;50.558;9.678;2022-07-05T05:24:52;14.20;99.90
7822;DHT22;3956;50.558;9.678;2022-07-05T05:27:23;14.20;99.90
7822;DHT22;3956;50.558;9.678;2022-07-05T05:30:07;14.40;99.90
7822;DHT22;3956;50.558;9.678;2022-07-05T05:32:52;14.40;99.90
7822;DHT22;3956;50.558;9.678;2022-07-05T05:35:23;14.30;99.90
7822;DHT22;3956;50.558;9.678;2022-07-05T05:41:46;14.60;99.90
7822;DHT22;3956;50.558;9.678;2022-07-05T05:44:52;14.90;99.90
7822;DHT22;3956;50.558;9.678;2022-07-05T05:47:20;15.00;99.90
7822;DHT22;3956;50.558;9.678;2022-07-05T05:49:49;15.20;99.90
7822;DHT22;3956;50.558;9.678;2022-07-05T05:52:18;15.30;99.90
7822;DHT22;3956;50.558;9.678;2022-07-05T05:54:52;15.30;99.90
7822;DHT22;3956;50.558;9.678;2022-07-05T06:01:36;15.60;99.90
7822;DHT22;3956;50.558;9.678;2022-07-05T06:04:04;15.80;99.90
7822;DHT22;3956;50.558;9.678;2022-07-05T06:06:40;15.90;99.90
7822;DHT22;3956;50.558;9.678;2022-07-05T06:09:22;16.30;99.90
7822;DHT22;3956;50.558;9.678;2022-07-05T06:12:15;16.40;99.90
7822;DHT22;3956;50.558;9.678;2022-07-05T06:14:44;16.40;99.90
7822;DHT22;3956;50.558;9.678;2022-07-05T06:17:17;16.50;99.90
7822;DHT22;3956;50.558;9.678;2022-07-05T06:19:47;16.60;99.90
7822;DHT22;3956;50.558;9.678;2022-07-05T06:22:21;16.80;99.90
7822;DHT22;3956;50.558;9.678;2022-07-05T06:24:50;17.00;99.90
7822;DHT22;3956;50.558;9.678;2022-07-05T06:27:39;16.90;99.90
7822;DHT22;3956;50.558;9.678;2022-07-05T06:30:10;16.90;99.90
7822;DHT22;3956;50.558;9.678;2022-07-05T06:32:43;16.70;99.90
7822;DHT22;3956;50.558;9.678;2022-07-05T06:35:14;17.00;99.90
7822;DHT22;3956;50.558;9.678;2022-07-05T06:37:47;17.10;99.90
7822;DHT22;3956;50.558;9.678;2022-07-05T06:40:22;17.50;99.90
7822;DHT22;3956;50.558;9.678;2022-07-05T06:43:18;17.60;99.90
7822;DHT22;3956;50.558;9.678;2022-07-05T06:45:49;17.70;99.90
7822;DHT22;3956;50.558;9.678;2022-07-05T06:48:29;17.90;99.90
7822;DHT22;3956;50.558;9.678;2022-07-05T06:50:58;19.30;99.90
7822;DHT22;3956;50.558;9.678;2022-07-05T06:53:27;22.20;99.90
7822;DHT22;3956;50.558;9.678;2022-07-05T06:55:58;22.90;99.90
7822;DHT22;3956;50.558;9.678;2022-07-05T06:58:42;23.10;99.90
7822;DHT22;3956;50.558;9.678;2022-07-05T07:01:34;24.10;99.90
7822;DHT22;3956;50.558;9.678;2022-07-05T07:04:32;24.90;99.90
7822;DHT22;3956;50.558;9.678;2022-07-05T07:07:26;24.00;99.90
7822;DHT22;3956;50.558;9.678;2022-07-05T07:10:32;23.70;99.90
7822;DHT22;3956;50.558;9.678;2022-07-05T07:13:34;24.00;99.90
7822;DHT22;3956;50.558;9.678;2022-07-05T07:16:05;24.70;99.90
7822;DHT22;3956;50.558;9.678;2022-07-05T07:18:41;26.10;99.90
7822;DHT22;3956;50.558;9.678;2022-07-05T07:21:38;25.80;99.90
7822;DHT22;3956;50.558;9.678;2022-07-05T07:24:07;25.20;99.90
7822;DHT22;3956;50.558;9.678;2022-07-05T07:26:36;25.30;99.90
7822;DHT22;3956;50.558;9.678;2022-07-05T07:29:18;26.30;99.90
7822;DHT22;3956;50.558;9.678;2022-07-05T07:31:47;26.60;99.90
7822;DHT22;3956;50.558;9.678;2022-07-05T07:34:15;26.10;99.90
7822;DHT22;3956;50.558;9.678;2022-07-05T07:36:45;27.60;99.90
7822;DHT22;3956;50.558;9.678;2022-07-05T07:39:32;27.60;99.90
7822;DHT22;3956;50.558;9.678;2022-07-05T07:42:49;28.00;99.90
7822;DHT22;3956;50.558;9.678;2022-07-05T07:45:21;27.20;99.90
7822;DHT22;3956;50.558;9.678;2022-07-05T07:48:33;27.70;99.90
7822;DHT22;3956;50.558;9.678;2022-07-05T07:51:02;27.40;99.90
7822;DHT22;3956;50.558;9.678;2022-07-05T07:53:36;28.50;99.90
7822;DHT22;3956;50.558;9.678;2022-07-05T07:56:10;28.50;99.90
7822;DHT22;3956;50.558;9.678;2022-07-05T07:58:42;28.30;99.90
7822;DHT22;3956;50.558;9.678;2022-07-05T08:01:12;28.80;99.90
7822;DHT22;3956;50.558;9.678;2022-07-05T08:03:42;28.60;99.90
7822;DHT22;3956;50.558;9.678;2022-07-05T08:06:11;28.70;99.90
7822;DHT22;3956;50.558;9.678;2022-07-05T08:08:49;28.90;99.90
7822;DHT22;3956;50.558;9.678;2022-07-05T08:11:29;29.40;99.90
7822;DHT22;3956;50.558;9.678;2022-07-05T08:14:04;29.90;99.90
7822;DHT22;3956;50.558;9.678;2022-07-05T08:16:33;29.00;99.90
7822;DHT22;3956;50.558;9.678;2022-07-05T08:19:02;27.60;99.90
7822;DHT22;3956;50.558;9.678;2022-07-05T08:21:49;28.40;99.90
7822;DHT22;3956;50.558;9.678;2022-07-05T08:24:25;27.70;99.90
7822;DHT22;3956;50.558;9.678;2022-07-05T08:26:59;26.80;99.90
7822;DHT22;3956;50.558;9.678;2022-07-05T08:29:34;29.70;99.90
7822;DHT22;3956;50.558;9.678;2022-07-05T08:35:31;28.40;99.90
7822;DHT22;3956;50.558;9.678;2022-07-05T08:38:07;27.80;99.90
7822;DHT22;3956;50.558;9.678;2022-07-05T08:41:26;28.80;99.90
7822;DHT22;3956;50.558;9.678;2022-07-05T08:44:32;29.20;99.90
7822;DHT22;3956;50.558;9.678;2022-07-05T08:47:10;29.30;99.90
7822;DHT22;3956;50.558;9.678;2022-07-05T08:49:40;28.80;99.90
7822;DHT22;3956;50.558;9.678;2022-07-05T08:52:11;29.00;99.90
7822;DHT22;3956;50.558;9.678;2022-07-05T08:54:41;29.60;99.90
7822;DHT22;3956;50.558;9.678;2022-07-05T08:57:11;29.80;99.90
7822;DHT22;3956;50.558;9.678;2022-07-05T08:59:46;30.50;99.90
7822;DHT22;3956;50.558;9.678;2022-07-05T09:02:57;30.60;99.90
7822;DHT22;3956;50.558;9.678;2022-07-05T09:05:31;30.40;99.90
7822;DHT22;3956;50.558;9.678;2022-07-05T09:08:22;30.30;99.90
7822;DHT22;3956;50.558;9.678;2022-07-05T09:11:24;30.10;99.90
7822;DHT22;3956;50.558;9.678;2022-07-05T09:14:22;29.20;99.90
7822;DHT22;3956;50.558;9.678;2022-07-05T09:16:59;30.20;99.90
7822;DHT22;3956;50.558;9.678;2022-07-05T09:19:35;28.70;99.90
7822;DHT22;3956;50.558;9.678;2022-07-05T09:22:09;28.80;99.90
7822;DHT22;3956;50.558;9.678;2022-07-05T09:24:48;26.90;99.90
7822;DHT22;3956;50.558;9.678;2022-07-05T09:27:29;27.00;99.90
7822;DHT22;3956;50.558;9.678;2022-07-05T09:37:10;26.30;99.90
7822;DHT22;3956;50.558;9.678;2022-07-05T09:39:39;27.90;99.90
7822;DHT22;3956;50.558;9.678;2022-07-05T09:42:10;28.60;99.90
7822;DHT22;3956;50.558;9.678;2022-07-05T09:44:47;29.40;99.90
7822;DHT22;3956;50.558;9.678;2022-07-05T09:47:49;30.10;99.90
7822;DHT22;3956;50.558;9.678;2022-07-05T09:50:49;29.20;99.90
7822;DHT22;3956;50.558;9.678;2022-07-05T09:57:46;28.20;99.90
7822;DHT22;3956;50.558;9.678;2022-07-05T10:00:27;26.60;99.90
7822;DHT22;3956;50.558;9.678;2022-07-05T10:04:02;26.20;99.90
7822;DHT22;3956;50.558;9.678;2022-07-05T10:07:06;25.60;99.90
7822;DHT22;3956;50.558;9.678;2022-07-05T10:09:37;25.10;99.90
7822;DHT22;3956;50.558;9.678;2022-07-05T10:12:09;24.50;99.90
7822;DHT22;3956;50.558;9.678;2022-07-05T10:14:39;24.80;99.90
7822;DHT22;3956;50.558;9.678;2022-07-05T10:17:14;25.00;99.90
7822;DHT22;3956;50.558;9.678;2022-07-05T10:19:55;24.70;99.90
7822;DHT22;3956;50.558;9.678;2022-07-05T10:22:29;24.10;99.90
7822;DHT22;3956;50.558;9.678;2022-07-05T10:25:00;24.40;99.90
7822;DHT22;3956;50.558;9.678;2022-07-05T10:27:31;25.20;99.90
7822;DHT22;3956;50.558;9.678;2022-07-05T10:30:21;25.10;99.90
7822;DHT22;3956;50.558;9.678;2022-07-05T10:33:09;25.40;99.90
7822;DHT22;3956;50.558;9.678;2022-07-05T10:35:48;24.90;99.90
7822;DHT22;3956;50.558;9.678;2022-07-05T10:38:38;25.00;99.90
7822;DHT22;3956;50.558;9.678;2022-07-05T10:42:01;25.30;99.90
7822;DHT22;3956;50.558;9.678;2022-07-05T10:48:16;25.70;99.90
7822;DHT22;3956;50.558;9.678;2022-07-05T10:50:49;25.40;99.90
7822;DHT22;3956;50.558;9.678;2022-07-05T10:53:24;25.60;99.90
7822;DHT22;3956;50.558;9.678;2022-07-05T10:56:12;25.40;99.90
7822;DHT22;3956;50.558;9.678;2022-07-05T10:58:49;26.00;99.90
7822;DHT22;3956;50.558;9.678;2022-07-05T11:01:50;25.80;99.90
7822;DHT22;3956;50.558;9.678;2022-07-05T11:12:06;25.40;99.90
7822;DHT22;3956;50.558;9.678;2022-07-05T11:15:07;26.20;99.90
7822;DHT22;3956;50.558;9.678;2022-07-05T11:22:01;25.50;99.90
7822;DHT22;3956;50.558;9.678;2022-07-05T11:24:38;25.90;99.90
7822;DHT22;3956;50.558;9.678;2022-07-05T11:27:16;25.60;99.90
7822;DHT22;3956;50.558;9.678;2022-07-05T11:32:50;25.10;99.90
7822;DHT22;3956;50.558;9.678;2022-07-05T11:35:35;25.10;99.90
7822;DHT22;3956;50.558;9.678;2022-07-05T11:38:10;25.30;99.90
7822;DHT22;3956;50.558;9.678;2022-07-05T11:41:24;25.60;99.90
7822;DHT22;3956;50.558;9.678;2022-07-05T11:44:49;25.60;99.90
7822;DHT22;3956;50.558;9.678;2022-07-05T11:47:45;26.50;99.90
7822;DHT22;3956;50.558;9.678;2022-07-05T11:50:16;26.30;99.90
7822;DHT22;3956;50.558;9.678;2022-07-05T11:52:59;25.70;99.90
7822;DHT22;3956;50.558;9.678;2022-07-05T11:59:23;25.70;99.90
7822;DHT22;3956;50.558;9.678;2022-07-05T12:01:55;26.10;99.90
7822;DHT22;3956;50.558;9.678;2022-07-05T12:04:25;26.00;99.90
7822;DHT22;3956;50.558;9.678;2022-07-05T12:06:58;25.90;99.90
7822;DHT22;3956;50.558;9.678;2022-07-05T12:09:31;26.20;99.90
7822;DHT22;3956;50.558;9.678;2022-07-05T12:12:26;26.40;99.90
7822;DHT22;3956;50.558;9.678;2022-07-05T12:15:15;26.50;99.90
7822;DHT22;3956;50.558;9.678;2022-07-05T12:18:14;26.50;99.90
7822;DHT22;3956;50.558;9.678;2022-07-05T12:21:15;26.60;99.90
7822;DHT22;3956;50.558;9.678;2022-07-05T12:23:49;26.20;99.90
7822;DHT22;3956;50.558;9.678;2022-07-05T12:26:25;26.20;99.90
7822;DHT22;3956;50.558;9.678;2022-07-05T12:28:55;25.90;99.90
7822;DHT22;3956;50.558;9.678;2022-07-05T12:31:29;25.70;99.90
7822;DHT22;3956;50.558;9.678;2022-07-05T12:34:17;25.80;99.90
7822;DHT22;3956;50.558;9.678;2022-07-05T12:37:06;26.00;99.90
7822;DHT22;3956;50.558;9.678;2022-07-05T12:40:12;26.30;99.90
7822;DHT22;3956;50.558;9.678;2022-07-05T12:43:17;26.60;99.90
7822;DHT22;3956;50.558;9.678;2022-07-05T12:46:04;25.70;99.90
7822;DHT22;3956;50.558;9.678;2022-07-05T12:48:39;25.80;99.90
7822;DHT22;3956;50.558;9.678;2022-07-05T12:51:30;26.10;99.90
7822;DHT22;3956;50.558;9.678;2022-07-05T12:54:35;26.20;99.90
7822;DHT22;3956;50.558;9.678;2022-07-05T12:57:23;26.00;99.90
7822;DHT22;3956;50.558;9.678;2022-07-05T13:00:40;26.10;99.90
7822;DHT22;3956;50.558;9.678;2022-07-05T13:03:15;26.40;99.90
7822;DHT22;3956;50.558;9.678;2022-07-05T13:06:08;25.90;99.90
7822;DHT22;3956;50.558;9.678;2022-07-05T13:08:36;25.80;99.90
7822;DHT22;3956;50.558;9.678;2022-07-05T13:11:09;26.10;99.90
7822;DHT22;3956;50.558;9.678;2022-07-05T13:13:45;26.40;99.90
7822;DHT22;3956;50.558;9.678;2022-07-05T13:16:59;25.90;99.90
7822;DHT22;3956;50.558;9.678;2022-07-05T13:19:31;26.30;99.90
7822;DHT22;3956;50.558;9.678;2022-07-05T13:22:08;26.10;99.90
7822;DHT22;3956;50.558;9.678;2022-07-05T13:24:37;26.30;99.90
7822;DHT22;3956;50.558;9.678;2022-07-05T13:27:10;26.50;99.90
7822;DHT22;3956;50.558;9.678;2022-07-05T13:29:48;26.10;99.90
7822;DHT22;3956;50.558;9.678;2022-07-05T13:32:24;25.80;99.90
7822;DHT22;3956;50.558;9.678;2022-07-05T13:34:54;25.60;99.90
7822;DHT22;3956;50.558;9.678;2022-07-05T13:37:25;25.70;99.90
7822;DHT22;3956;50.558;9.678;2022-07-05T13:39:55;25.60;99.90
7822;DHT22;3956;50.558;9.678;2022-07-05T13:42:23;25.40;99.90
7822;DHT22;3956;50.558;9.678;2022-07-05T13:44:52;25.70;99.90
7822;DHT22;3956;50.558;9.678;2022-07-05T13:47:24;26.10;99.90
7822;DHT22;3956;50.558;9.678;2022-07-05T13:49:53;26.40;99.90
7822;DHT22;3956;50.558;9.678;2022-07-05T13:56:35;26.60;99.90
7822;DHT22;3956;50.558;9.678;2022-07-05T13:59:10;26.20;99.90
7822;DHT22;3956;50.558;9.678;2022-07-05T14:01:39;25.70;99.90
7822;DHT22;3956;50.558;9.678;2022-07-05T14:04:24;25.40;99.90
7822;DHT22;3956;50.558;9.678;2022-07-05T14:06:57;25.60;99.90
7822;DHT22;3956;50.558;9.678;2022-07-05T14:09:29;25.50;99.90
7822;DHT22;3956;50.558;9.678;2022-07-05T14:12:02;25.90;99.90
7822;DHT22;3956;50.558;9.678;2022-07-05T14:14:41;26.10;99.90
7822;DHT22;3956;50.558;9.678;2022-07-05T14:17:58;26.50;99.90
7822;DHT22;3956;50.558;9.678;2022-07-05T14:21:05;26.20;99.90
7822;DHT22;3956;50.558;9.678;2022-07-05T14:24:06;25.70;99.90
7822;DHT22;3956;50.558;9.678;2022-07-05T14:26:42;26.00;99.90
7822;DHT22;3956;50.558;9.678;2022-07-05T14:29:26;26.00;99.90
7822;DHT22;3956;50.558;9.678;2022-07-05T14:32:22;25.90;99.90
7822;DHT22;3956;50.558;9.678;2022-07-05T14:35:42;25.80;99.90
7822;DHT22;3956;50.558;9.678;2022-07-05T14:38:22;26.10;99.90
7822;DHT22;3956;50.558;9.678;2022-07-05T14:40:58;26.20;99.90
7822;DHT22;3956;50.558;9.678;2022-07-05T14:43:48;26.40;99.90
7822;DHT22;3956;50.558;9.678;2022-07-05T14:46:41;26.70;99.90
7822;DHT22;3956;50.558;9.678;2022-07-05T14:49:34;26.60;99.90
7822;DHT22;3956;50.558;9.678;2022-07-05T14:52:10;26.40;99.90
7822;DHT22;3956;50.558;9.678;2022-07-05T14:54:46;26.20;99.90
7822;DHT22;3956;50.558;9.678;2022-07-05T14:57:20;26.30;99.90
7822;DHT22;3956;50.558;9.678;2022-07-05T14:59:54;25.90;99.90
7822;DHT22;3956;50.558;9.678;2022-07-05T15:02:47;25.70;99.90
7822;DHT22;3956;50.558;9.678;2022-07-05T15:05:34;25.50;99.90
7822;DHT22;3956;50.558;9.678;2022-07-05T15:12:13;25.30;99.90
7822;DHT22;3956;50.558;9.678;2022-07-05T15:14:45;25.40;99.90
7822;DHT22;3956;50.558;9.678;2022-07-05T15:17:44;25.30;99.90
7822;DHT22;3956;50.558;9.678;2022-07-05T15:20:25;25.30;99.90
7822;DHT22;3956;50.558;9.678;2022-07-05T15:23:00;25.20;99.90
7822;DHT22;3956;50.558;9.678;2022-07-05T15:26:20;25.10;99.90
7822;DHT22;3956;50.558;9.678;2022-07-05T15:29:52;25.00;99.90
7822;DHT22;3956;50.558;9.678;2022-07-05T15:32:24;25.40;99.90
7822;DHT22;3956;50.558;9.678;2022-07-05T15:35:02;25.60;99.90
7822;DHT22;3956;50.558;9.678;2022-07-05T15:37:48;25.60;99.90
7822;DHT22;3956;50.558;9.678;2022-07-05T15:40:21;25.30;99.90
7822;DHT22;3956;50.558;9.678;2022-07-05T15:42:55;25.20;99.90
7822;DHT22;3956;50.558;9.678;2022-07-05T15:45:29;24.80;99.90
7822;DHT22;3956;50.558;9.678;2022-07-05T15:48:01;24.90;99.90
7822;DHT22;3956;50.558;9.678;2022-07-05T15:50:55;25.20;99.90
7822;DHT22;3956;50.558;9.678;2022-07-05T15:53:49;25.40;99.90
7822;DHT22;3956;50.558;9.678;2022-07-05T15:59:52;26.00;99.90
7822;DHT22;3956;50.558;9.678;2022-07-05T16:02:24;26.30;99.90
7822;DHT22;3956;50.558;9.678;2022-07-05T16:08:13;26.00;99.90
7822;DHT22;3956;50.558;9.678;2022-07-05T16:11:19;25.40;99.90
7822;DHT22;3956;50.558;9.678;2022-07-05T16:13:51;25.20;99.90
7822;DHT22;3956;50.558;9.678;2022-07-05T16:16:39;25.50;99.90
7822;DHT22;3956;50.558;9.678;2022-07-05T16:19:18;25.60;99.90
7822;DHT22;3956;50.558;9.678;2022-07-05T16:21:50;25.70;99.90
7822;DHT22;3956;50.558;9.678;2022-07-05T16:24:54;25.50;99.90
7822;DHT22;3956;50.558;9.678;2022-07-05T16:31:55;25.40;99.90
7822;DHT22;3956;50.558;9.678;2022-07-05T16:34:26;25.40;99.90
7822;DHT22;3956;50.558;9.678;2022-07-05T16:36:57;25.30;99.90
7822;DHT22;3956;50.558;9.678;2022-07-05T16:39:48;25.50;99.90
7822;DHT22;3956;50.558;9.678;2022-07-05T16:42:40;25.50;99.90
7822;DHT22;3956;50.558;9.678;2022-07-05T16:45:15;25.30;99.90
7822;DHT22;3956;50.558;9.678;2022-07-05T16:47:55;25.40;99.90
7822;DHT22;3956;50.558;9.678;2022-07-05T16:50:33;25.50;99.90
7822;DHT22;3956;50.558;9.678;2022-07-05T16:53:37;25.70;99.90
7822;DHT22;3956;50.558;9.678;2022-07-05T16:56:16;25.70;99.90
7822;DHT22;3956;50.558;9.678;2022-07-05T16:59:10;25.80;99.90
7822;DHT22;3956;50.558;9.678;2022-07-05T17:01:44;25.50;99.90
7822;DHT22;3956;50.558;9.678;2022-07-05T17:04:15;25.50;99.90
7822;DHT22;3956;50.558;9.678;2022-07-05T17:06:51;25.50;99.90
7822;DHT22;3956;50.558;9.678;2022-07-05T17:09:38;25.40;99.90
7822;DHT22;3956;50.558;9.678;2022-07-05T17:12:09;25.60;99.90
7822;DHT22;3956;50.558;9.678;2022-07-05T17:14:39;25.40;99.90
7822;DHT22;3956;50.558;9.678;2022-07-05T17:17:13;25.30;99.90
7822;DHT22;3956;50.558;9.678;2022-07-05T17:23:35;24.80;99.90
7822;DHT22;3956;50.558;9.678;2022-07-05T17:26:26;24.80;99.90
7822;DHT22;3956;50.558;9.678;2022-07-05T17:29:05;24.60;99.90
7822;DHT22;3956;50.558;9.678;2022-07-05T17:31:37;24.60;99.90
7822;DHT22;3956;50.558;9.678;2022-07-05T17:34:14;24.60;99.90
7822;DHT22;3956;50.558;9.678;2022-07-05T17:36:52;24.60;99.90
7822;DHT22;3956;50.558;9.678;2022-07-05T17:39:31;24.60;99.90
7822;DHT22;3956;50.558;9.678;2022-07-05T17:42:12;24.50;99.90
7822;DHT22;3956;50.558;9.678;2022-07-05T17:45:05;24.40;99.90
7822;DHT22;3956;50.558;9.678;2022-07-05T17:47:36;24.50;99.90
7822;DHT22;3956;50.558;9.678;2022-07-05T17:50:07;24.40;99.90
7822;DHT22;3956;50.558;9.678;2022-07-05T17:53:06;24.40;99.90
7822;DHT22;3956;50.558;9.678;2022-07-05T17:55:42;24.40;99.90
7822;DHT22;3956;50.558;9.678;2022-07-05T17:58:14;24.40;99.90
7822;DHT22;3956;50.558;9.678;2022-07-05T18:00:47;24.40;99.90
7822;DHT22;3956;50.558;9.678;2022-07-05T18:03:32;24.40;99.90
7822;DHT22;3956;50.558;9.678;2022-07-05T18:06:38;24.40;99.90
7822;DHT22;3956;50.558;9.678;2022-07-05T18:09:24;24.20;99.90
7822;DHT22;3956;50.558;9.678;2022-07-05T18:12:20;24.00;99.90
7822;DHT22;3956;50.558;9.678;2022-07-05T18:14:49;23.90;99.90
7822;DHT22;3956;50.558;9.678;2022-07-05T18:17:27;23.80;99.90
7822;DHT22;3956;50.558;9.678;2022-07-05T18:19:58;23.80;99.90
7822;DHT22;3956;50.558;9.678;2022-07-05T18:22:43;23.80;99.90
7822;DHT22;3956;50.558;9.678;2022-07-05T18:25:51;23.80;99.90
7822;DHT22;3956;50.558;9.678;2022-07-05T18:28:53;23.60;99.90